• Join FlightAware (Why Join?)
  • Login
  • US Flag 
12:18PM EDT


 

Airport Tracker/Info


-or-


 

Live Flight TrackerFlight Track Log ✈ AWE1940 ✈ 16-Jun-2013 ✈ KCLT - KALB

Flight Track Log - Related Links

Times and Time Zones

All times are in EDT time to prevent confusion due to time zone crossing. See the AWE1940 flight status page for this flight to view local times or setup timezone preferences in your user account.

Time Position Orientation Groundspeed Altitude Reporting Facility
EDT Latitude Longitude Course Direction KTS MPH feet Rate Location/Type
01:11AM 37.4408 -76.3378 35° Northeast  Level FlightAware Approximate
01:12AM 37.5313 -76.2521 38° Northeast  Level FlightAware Approximate
01:13AM 37.6202 -76.1635 35° Northeast  Level FlightAware Approximate
01:14AM 37.7128 -76.0813 35° Northeast  Level FlightAware Approximate
01:15AM 37.8055 -75.9989 35° Northeast  Level FlightAware Approximate
01:16AM 37.8982 -75.9165 35° Northeast  Level FlightAware Approximate
01:17AM 37.9891 -75.8309 37° Northeast  Level FlightAware Approximate
01:18AM 38.0796 -75.7443 37° Northeast  Level FlightAware Approximate
01:19AM 38.1699 -75.6576 37° Northeast  Level FlightAware Approximate
01:20AM 38.2603 -75.5706 37° Northeast  Level FlightAware Approximate
01:21AM 38.3539 -75.4920 17° North  Level FlightAware Approximate
01:22AM 38.4622 -75.4497 17° North  Level FlightAware Approximate
01:23AM 38.5705 -75.4074 17° North  Level FlightAware Approximate
01:24AM 38.6788 -75.3649 17° North  Level FlightAware Approximate
01:25AM 38.7866 -75.3203 18° North  Level FlightAware Approximate
01:26AM 38.8941 -75.2744 18° North  Level FlightAware Approximate
01:27AM 39.0015 -75.2285 18° North  Level FlightAware Approximate
01:28AM 39.1090 -75.1824 18° North  Level FlightAware Approximate
01:29AM 39.2164 -75.1361 18° North  Level FlightAware Approximate
01:30AM 39.3199 -75.0803 37° Northeast  Level FlightAware Approximate
01:31AM 39.4099 -74.9914 37° Northeast  Level FlightAware Approximate
01:32AM 39.4999 -74.9023 37° Northeast  Level FlightAware Approximate
01:33AM 39.5897 -74.8129 37° Northeast  Level FlightAware Approximate
01:34AM 39.6795 -74.7232 38° Northeast  Level FlightAware Approximate
01:35AM 39.7692 -74.6334 38° Northeast  Level FlightAware Approximate
01:36AM 39.8589 -74.5433 38° Northeast  Level FlightAware Approximate
01:37AM 39.9485 -74.4530 38° Northeast  Level FlightAware Approximate
01:38AM 40.0380 -74.3624 38° Northeast  Level FlightAware Approximate
01:39AM 40.1241 -74.2664 42° Northeast  Level FlightAware Approximate
01:40AM 40.2134 -74.1758 34° Northeast  Level FlightAware Approximate
01:41AM 40.3085 -74.0958 21° North  Level FlightAware Approximate
01:42AM 40.4144 -74.0431 21° North  Level FlightAware Approximate
01:43AM 40.5203 -73.9902 21° North  Level FlightAware Approximate
01:44AM 40.6261 -73.9372 21° North  Level FlightAware Approximate
01:45AM 40.7319 -73.8840 21° North  Level FlightAware Approximate
01:46AM 40.8144 -73.7985 59° Northeast  Level FlightAware Approximate
01:47AM 40.8756 -73.6735 40° Northeast  Level FlightAware Approximate
01:48AM 40.9623 -73.5771 40° Northeast  Level FlightAware Approximate
01:49AM 41.0504 -73.4829 37° Northeast  Level FlightAware Approximate
01:50AM 41.1343 -73.3824 37° Northeast  Level FlightAware Approximate
01:51AM 41.2248 -73.2919 37° Northeast  Level FlightAware Approximate
01:52AM 41.3153 -73.2014 37° Northeast  Level FlightAware Approximate
01:53AM 41.4171 -73.2252 339° North  Level FlightAware Approximate
01:54AM 41.5243 -73.2727 349° North  Level FlightAware Approximate
01:55AM 41.6303 -73.3223 343° North  Level FlightAware Approximate
01:56AM 41.7386 -73.3668 343° North  Level FlightAware Approximate
01:57AM 41.8469 -73.4114 343° North  Level FlightAware Approximate
01:58AM 41.9556 -73.4541 344° North  Level FlightAware Approximate
01:59AM 42.0638 -73.4986 340° North  Level FlightAware Approximate
02:00AM 42.1741 -73.5043 North  Level FlightAware Approximate
02:01AM 42.2855 -73.4799 North  Level FlightAware Approximate
02:02AM 42.3977 -73.4595 North  Level FlightAware Approximate
02:03AM 42.4973 -73.4613 304° West  Level FlightAware Approximate
02:04AM 42.5807 -73.5640 324° Northwest  Level FlightAware Approximate
02:05AM 42.6560 -73.6784 317° Northwest  Level FlightAware Approximate
02:06AM 42.7301 -73.7936 304° West  Level FlightAware Approximate
02:07AM 42.7333 -73.8000 304° West  Level FlightAware Approximate
02:08AM 42.7491 -73.8020 304° West  Level Estimated
02:09AM 42.7491 -73.8020 304° West  Level Estimated
02:10AM 42.7491 -73.8020 304° West  Level Estimated
02:11AM 42.7491 -73.8020 304° West  Level Estimated
02:12AM 42.7491 -73.8020 304° West  Level Estimated
02:13AM 42.7491 -73.8020 304° West  Level Estimated
02:14AM 42.7491 -73.8020 304° West  Level Estimated
02:15AM 42.7491 -73.8020 304° West  Level Estimated
02:16AM 42.7491 -73.8020 304° West  Level Estimated
02:17AM 42.7491 -73.8020 304° West  Level Estimated
02:18AM 42.7491 -73.8020 304° West  Level Estimated
02:19AM 42.7491 -73.8020 304° West  Level Estimated
02:20AM 42.7491 -73.8020 304° West  Level Estimated
02:21AM 42.7491 -73.8020 304° West  Level Estimated
02:22AM 42.7491 -73.8020 304° West  Level Estimated